createdAt,value
2018-11-10T00:01:02.167Z,71.31
2018-11-10T00:02:06.452Z,71.31
2018-11-10T00:03:10.500Z,71.08
2018-11-10T00:04:14.601Z,71.12
2018-11-10T00:05:19.619Z,71.15
2018-11-10T00:06:23.687Z,71.35
2018-11-10T00:07:27.804Z,71.08
2018-11-10T00:08:31.889Z,71.29
2018-11-10T00:09:36.058Z,71.17
2018-11-10T00:10:40.083Z,71.37
2018-11-10T00:11:44.306Z,71.15
2018-11-10T00:12:49.022Z,71.08
2018-11-10T00:13:53.369Z,71.28
2018-11-10T00:14:57.532Z,71.33
2018-11-10T00:16:01.647Z,71.21
2018-11-10T00:17:06.449Z,71.47
2018-11-10T00:18:10.658Z,71.25
2018-11-10T00:19:15.328Z,71.36
2018-11-10T00:20:19.432Z,71.34
2018-11-10T00:21:23.471Z,71.52
2018-11-10T00:22:27.745Z,71.66
2018-11-10T00:23:31.927Z,71.51
2018-11-10T00:24:35.996Z,71.55
2018-11-10T00:25:40.088Z,71.48
2018-11-10T00:26:44.288Z,71.49
2018-11-10T00:27:48.450Z,71.41
2018-11-10T00:28:52.761Z,71.55
2018-11-10T00:29:56.907Z,71.48
2018-11-10T00:31:01.115Z,71.30
2018-11-10T00:32:05.893Z,71.64
2018-11-10T00:33:10.176Z,71.65
2018-11-10T00:34:14.355Z,71.54
2018-11-10T00:35:18.487Z,71.56
2018-11-10T00:36:22.691Z,71.61
2018-11-10T00:37:26.994Z,71.42
2018-11-10T00:38:31.122Z,71.50
2018-11-10T00:39:35.204Z,71.53
2018-11-10T00:40:39.291Z,71.70
2018-11-10T00:41:43.371Z,71.63
2018-11-10T00:42:47.515Z,71.83
2018-11-10T00:43:51.618Z,71.46
2018-11-10T00:44:55.716Z,71.55
2018-11-10T00:45:59.929Z,71.62
2018-11-10T00:47:04.089Z,71.48
2018-11-10T00:48:08.271Z,71.42
2018-11-10T00:49:12.444Z,71.30
2018-11-10T00:50:16.659Z,71.28
2018-11-10T00:51:21.866Z,71.62
2018-11-10T00:52:28.223Z,71.17
2018-11-10T00:53:32.389Z,71.46
2018-11-10T00:54:36.444Z,71.14
2018-11-10T00:55:40.576Z,71.05
2018-11-10T00:56:44.814Z,71.24
2018-11-10T00:57:48.887Z,71.14
2018-11-10T00:58:52.955Z,70.93
2018-11-10T00:59:57.161Z,71.00
2018-11-10T01:01:01.406Z,70.95
2018-11-10T01:02:05.603Z,70.93
2018-11-10T01:03:09.808Z,70.64
2018-11-10T01:04:13.890Z,70.83
2018-11-10T01:05:18.028Z,70.60
2018-11-10T01:06:22.144Z,70.50
2018-11-10T01:07:26.353Z,70.59
2018-11-10T01:08:30.475Z,70.60
2018-11-10T01:09:34.634Z,70.88
2018-11-10T01:10:38.702Z,70.75
2018-11-10T01:11:42.844Z,70.57
2018-11-10T01:12:47.110Z,70.86
2018-11-10T01:13:51.139Z,70.34
2018-11-10T01:14:55.603Z,70.87
2018-11-10T01:15:59.880Z,70.48
2018-11-10T01:17:03.980Z,70.36
2018-11-10T01:18:08.120Z,70.53
2018-11-10T01:19:12.433Z,70.48
2018-11-10T01:20:16.497Z,70.39
2018-11-10T01:21:20.608Z,70.69
2018-11-10T01:22:24.697Z,70.73
2018-11-10T01:23:29.247Z,70.42
2018-11-10T01:24:33.416Z,70.36
2018-11-10T01:25:37.557Z,70.35
2018-11-10T01:26:41.670Z,70.66
2018-11-10T01:27:45.824Z,70.71
2018-11-10T01:28:49.867Z,70.95
2018-11-10T01:29:53.976Z,70.54
2018-11-10T01:30:58.071Z,70.50
2018-11-10T01:32:02.209Z,70.58
2018-11-10T01:33:06.224Z,70.41
2018-11-10T01:34:10.435Z,70.42
2018-11-10T01:35:14.987Z,70.38
2018-11-10T01:36:19.046Z,70.56
2018-11-10T01:37:23.115Z,70.80
2018-11-10T01:38:27.227Z,70.59
2018-11-10T01:39:31.266Z,70.61
2018-11-10T01:40:35.360Z,70.77
2018-11-10T01:41:39.792Z,70.62
2018-11-10T01:42:44.410Z,70.89
2018-11-10T01:43:48.555Z,70.92
2018-11-10T01:44:52.662Z,70.90
2018-11-10T01:45:56.752Z,70.81
2018-11-10T01:47:00.902Z,70.70
2018-11-10T01:48:05.436Z,70.63
2018-11-10T01:49:09.500Z,70.76
2018-11-10T01:50:13.666Z,70.62
2018-11-10T01:51:17.767Z,70.72
2018-11-10T01:52:21.833Z,70.79
2018-11-10T01:53:25.893Z,70.63
2018-11-10T01:54:30.071Z,70.60
2018-11-10T01:55:34.340Z,70.61
2018-11-10T01:56:38.434Z,70.34
2018-11-10T01:57:43.291Z,70.23
2018-11-10T01:58:47.409Z,70.22
2018-11-10T01:59:51.475Z,70.28
2018-11-10T02:00:55.601Z,70.33
2018-11-10T02:02:00.856Z,70.14
2018-11-10T02:03:05.321Z,70.30
2018-11-10T02:04:09.547Z,70.07
2018-11-10T02:05:17.392Z,70.49
2018-11-10T02:06:21.588Z,69.97
2018-11-10T02:07:25.631Z,69.95
2018-11-10T02:08:29.759Z,70.13
2018-11-10T02:09:33.877Z,70.21
2018-11-10T02:10:38.056Z,70.05
2018-11-10T02:11:42.158Z,70.04
2018-11-10T02:12:46.304Z,69.67
2018-11-10T02:13:50.430Z,69.77
2018-11-10T02:14:54.621Z,69.87
2018-11-10T02:15:58.788Z,69.99
2018-11-10T02:17:02.950Z,69.80
2018-11-10T02:18:07.140Z,70.04
2018-11-10T02:19:11.312Z,69.66
2018-11-10T02:20:16.011Z,69.64
2018-11-10T02:21:20.089Z,69.66
2018-11-10T02:22:24.548Z,69.69
2018-11-10T02:23:28.860Z,69.88
2018-11-10T02:24:33.127Z,69.73
2018-11-10T02:25:37.265Z,69.76
2018-11-10T02:26:41.349Z,69.86
2018-11-10T02:27:45.516Z,69.83
2018-11-10T02:28:49.697Z,69.51
2018-11-10T02:29:54.959Z,69.78
2018-11-10T02:30:59.348Z,69.74
2018-11-10T02:32:03.444Z,69.62
2018-11-10T02:33:07.645Z,69.77
2018-11-10T02:34:11.778Z,69.63
2018-11-10T02:35:15.891Z,69.60
2018-11-10T02:36:20.055Z,69.75
2018-11-10T02:37:24.178Z,69.68
2018-11-10T02:38:28.431Z,69.26
2018-11-10T02:39:32.585Z,69.52
2018-11-10T02:40:36.712Z,69.15
2018-11-10T02:41:40.810Z,69.25
2018-11-10T02:42:45.161Z,69.41
2018-11-10T02:43:49.346Z,69.07
2018-11-10T02:44:53.467Z,69.04
2018-11-10T02:45:57.524Z,69.00
2018-11-10T02:47:01.610Z,69.00
2018-11-10T02:48:05.784Z,69.10
2018-11-10T02:49:09.824Z,69.26
2018-11-10T02:50:13.967Z,68.97
2018-11-10T02:51:18.217Z,68.87
2018-11-10T02:52:22.399Z,68.70
2018-11-10T02:53:26.488Z,68.78
2018-11-10T02:54:30.780Z,68.67
2018-11-10T02:55:34.900Z,69.00
2018-11-10T02:56:38.945Z,68.73
2018-11-10T02:57:43.255Z,68.57
2018-11-10T02:58:47.430Z,68.68
2018-11-10T02:59:51.512Z,68.31
2018-11-10T03:00:55.615Z,68.50
2018-11-10T03:01:59.756Z,68.96
2018-11-10T03:03:04.020Z,68.48
2018-11-10T03:04:08.163Z,68.65
2018-11-10T03:05:12.510Z,68.63
2018-11-10T03:06:16.543Z,68.56
2018-11-10T03:07:20.711Z,68.37
2018-11-10T03:08:24.737Z,68.19
2018-11-10T03:09:28.971Z,68.28
2018-11-10T03:10:33.152Z,68.29
2018-11-10T03:11:37.537Z,68.32
2018-11-10T03:12:42.108Z,68.13
2018-11-10T03:13:46.185Z,68.09
2018-11-10T03:14:50.307Z,68.16
2018-11-10T03:15:54.620Z,68.23
2018-11-10T03:16:58.726Z,68.24
2018-11-10T03:18:02.820Z,68.07
2018-11-10T03:19:06.952Z,67.73
2018-11-10T03:20:14.854Z,68.17
2018-11-10T03:21:18.951Z,68.15
2018-11-10T03:22:23.065Z,68.08
2018-11-10T03:23:27.206Z,67.88
2018-11-10T03:24:31.321Z,68.02
2018-11-10T03:25:35.452Z,67.78
2018-11-10T03:26:39.567Z,67.93
2018-11-10T03:27:43.733Z,67.64
2018-11-10T03:28:47.846Z,67.93
2018-11-10T03:29:51.971Z,67.75
2018-11-10T03:30:56.071Z,67.06
2018-11-10T03:32:00.162Z,67.73
2018-11-10T03:33:04.677Z,67.45
2018-11-10T03:34:08.887Z,67.50
2018-11-10T03:35:12.975Z,67.04
2018-11-10T03:36:17.047Z,67.40
2018-11-10T03:37:21.186Z,67.38
2018-11-10T03:38:25.302Z,67.37
2018-11-10T03:39:29.403Z,67.00
2018-11-10T03:40:33.499Z,67.01
2018-11-10T03:41:37.683Z,67.41
2018-11-10T03:42:41.764Z,66.94
2018-11-10T03:43:45.907Z,67.00
2018-11-10T03:44:50.039Z,67.24
2018-11-10T03:45:54.211Z,66.60
2018-11-10T03:46:58.373Z,66.57
2018-11-10T03:48:02.536Z,66.87
2018-11-10T03:49:06.635Z,66.83
2018-11-10T03:50:11.549Z,66.95
2018-11-10T03:51:15.731Z,66.73
2018-11-10T03:52:20.203Z,66.33
2018-11-10T03:53:24.312Z,66.44
2018-11-10T03:54:29.217Z,66.18
2018-11-10T03:55:33.319Z,65.95
2018-11-10T03:56:37.424Z,66.53
2018-11-10T03:57:41.506Z,66.45
2018-11-10T03:58:45.548Z,66.21
2018-11-10T03:59:49.630Z,66.27
2018-11-10T04:00:53.711Z,66.39
2018-11-10T04:01:57.736Z,65.98
2018-11-10T04:03:01.847Z,66.31
2018-11-10T04:04:05.966Z,66.35
2018-11-10T04:05:10.737Z,66.24
2018-11-10T04:06:14.911Z,66.43
2018-11-10T04:07:19.116Z,65.79
2018-11-10T04:08:23.171Z,66.37
2018-11-10T04:09:27.371Z,66.28
2018-11-10T04:10:31.412Z,65.70
2018-11-10T04:11:35.599Z,66.33
2018-11-10T04:12:39.911Z,66.03
2018-11-10T04:13:44.034Z,66.23
2018-11-10T04:14:48.228Z,65.94
2018-11-10T04:15:52.340Z,66.05
2018-11-10T04:16:56.759Z,65.98
2018-11-10T04:18:00.796Z,65.86
2018-11-10T04:19:05.305Z,66.03
2018-11-10T04:20:10.250Z,65.56
2018-11-10T04:21:14.420Z,65.82
2018-11-10T04:22:24.888Z,65.87
2018-11-10T04:23:29.075Z,65.89
2018-11-10T04:24:33.176Z,65.82
2018-11-10T04:25:37.412Z,65.67
2018-11-10T04:26:41.560Z,65.45
2018-11-10T04:27:45.681Z,65.98
2018-11-10T04:28:49.795Z,65.96
2018-11-10T04:29:53.956Z,66.02
2018-11-10T04:30:58.104Z,65.47
2018-11-10T04:32:02.347Z,65.45
2018-11-10T04:33:06.438Z,65.85
2018-11-10T04:34:10.617Z,65.33
2018-11-10T04:35:14.826Z,65.66
2018-11-10T04:36:18.891Z,65.64
2018-11-10T04:37:23.283Z,65.29
2018-11-10T04:38:28.016Z,65.28
2018-11-10T04:39:32.155Z,65.08
2018-11-10T04:40:36.299Z,65.14
2018-11-10T04:41:40.418Z,64.95
2018-11-10T04:42:44.533Z,64.93
2018-11-10T04:43:48.671Z,65.13
2018-11-10T04:44:52.821Z,65.16
2018-11-10T04:45:57.535Z,64.96
2018-11-10T04:47:01.690Z,65.39
2018-11-10T04:48:05.883Z,65.25
2018-11-10T04:49:10.126Z,64.56
2018-11-10T04:50:14.371Z,64.97
2018-11-10T04:51:18.443Z,65.25
2018-11-10T04:52:22.458Z,64.49
2018-11-10T04:53:27.603Z,65.11
2018-11-10T04:54:32.444Z,65.06
2018-11-10T04:55:36.500Z,65.06
2018-11-10T04:56:40.641Z,64.40
2018-11-10T04:57:44.751Z,64.54
2018-11-10T04:58:49.006Z,65.04
2018-11-10T04:59:53.082Z,64.65
2018-11-10T05:00:57.180Z,64.77
2018-11-10T05:02:01.292Z,64.56
2018-11-10T05:03:05.711Z,64.92
2018-11-10T05:04:10.024Z,64.63
2018-11-10T05:05:14.136Z,64.65
2018-11-10T05:06:18.260Z,64.91
2018-11-10T05:07:22.476Z,64.86
2018-11-10T05:08:26.515Z,64.64
2018-11-10T05:09:30.636Z,64.48
2018-11-10T05:10:34.697Z,64.33
2018-11-10T05:11:38.743Z,64.03
2018-11-10T05:12:42.867Z,64.61
2018-11-10T05:13:47.027Z,64.66
2018-11-10T05:14:51.097Z,64.69
2018-11-10T05:15:55.151Z,64.47
2018-11-10T05:16:59.576Z,64.30
2018-11-10T05:18:03.596Z,64.44
2018-11-10T05:19:07.682Z,64.57
2018-11-10T05:20:11.889Z,64.25
2018-11-10T05:21:15.994Z,64.39
2018-11-10T05:22:20.116Z,64.93
2018-11-10T05:23:24.220Z,64.86
2018-11-10T05:24:28.524Z,65.20
2018-11-10T05:25:32.611Z,65.38
2018-11-10T05:26:36.759Z,65.10
2018-11-10T05:27:41.038Z,65.22
2018-11-10T05:28:45.223Z,65.78
2018-11-10T05:29:49.306Z,65.25
2018-11-10T05:30:53.517Z,65.88
2018-11-10T05:31:57.600Z,65.75
2018-11-10T05:33:01.769Z,66.11
2018-11-10T05:34:06.571Z,65.86
2018-11-10T05:35:10.648Z,66.10
2018-11-10T05:36:14.869Z,66.57
2018-11-10T05:37:18.985Z,66.56
2018-11-10T05:38:23.250Z,66.94
2018-11-10T05:39:27.317Z,66.97
2018-11-10T05:40:31.319Z,67.07
2018-11-10T05:41:35.492Z,67.10
2018-11-10T05:42:39.927Z,67.51
2018-11-10T05:43:44.071Z,67.48
2018-11-10T05:44:48.231Z,67.15
2018-11-10T05:45:52.314Z,67.86
2018-11-10T05:46:56.402Z,67.80
2018-11-10T05:48:00.455Z,67.84
2018-11-10T05:49:04.548Z,67.81
2018-11-10T05:50:09.303Z,67.75
2018-11-10T05:51:13.498Z,68.35
2018-11-10T05:52:17.603Z,68.75
2018-11-10T05:53:21.683Z,68.01
2018-11-10T05:54:25.797Z,68.46
2018-11-10T05:55:29.870Z,68.91
2018-11-10T05:56:33.888Z,69.00
2018-11-10T05:57:38.218Z,68.48
2018-11-10T05:58:42.327Z,68.98
2018-11-10T05:59:46.394Z,69.38
2018-11-10T06:00:50.447Z,69.14
2018-11-10T06:01:54.599Z,69.06
2018-11-10T06:02:58.673Z,69.39
2018-11-10T06:04:02.692Z,68.88
2018-11-10T06:05:06.907Z,69.95
2018-11-10T06:06:10.996Z,69.52
2018-11-10T06:07:15.244Z,70.25
2018-11-10T06:08:19.285Z,70.28
2018-11-10T06:09:23.489Z,70.01
2018-11-10T06:10:27.540Z,70.35
2018-11-10T06:11:31.594Z,70.25
2018-11-10T06:12:35.937Z,70.27
2018-11-10T06:13:40.487Z,70.10
2018-11-10T06:14:44.632Z,70.99
2018-11-10T06:15:48.688Z,70.71
2018-11-10T06:16:52.841Z,70.74
2018-11-10T06:17:57.092Z,70.80
2018-11-10T06:19:01.334Z,70.83
2018-11-10T06:20:06.774Z,70.71
2018-11-10T06:21:11.007Z,71.07
2018-11-10T06:22:15.167Z,71.00
2018-11-10T06:23:19.298Z,71.21
2018-11-10T06:24:23.356Z,71.58
2018-11-10T06:25:27.440Z,71.51
2018-11-10T06:26:31.739Z,71.60
2018-11-10T06:27:36.760Z,71.77
2018-11-10T06:28:40.997Z,71.97
2018-11-10T06:29:51.908Z,71.64
2018-11-10T06:30:56.007Z,71.49
2018-11-10T06:32:00.238Z,71.53
2018-11-10T06:33:04.315Z,71.90
2018-11-10T06:34:08.404Z,71.60
2018-11-10T06:35:12.653Z,72.28
2018-11-10T06:36:16.808Z,72.08
2018-11-10T06:37:20.976Z,72.07
2018-11-10T06:38:25.093Z,71.84
2018-11-10T06:39:29.192Z,72.44
2018-11-10T06:40:33.342Z,72.61
2018-11-10T06:41:37.526Z,72.78
2018-11-10T06:42:42.257Z,72.38
2018-11-10T06:43:46.357Z,72.58
2018-11-10T06:44:50.488Z,72.68
2018-11-10T06:45:55.137Z,72.56
2018-11-10T06:46:59.212Z,72.50
2018-11-10T06:48:03.197Z,72.88
2018-11-10T06:49:07.708Z,72.60
2018-11-10T06:50:12.187Z,72.56
2018-11-10T06:51:16.337Z,72.78
2018-11-10T06:52:20.646Z,72.80
2018-11-10T06:53:24.972Z,72.47
2018-11-10T06:54:29.125Z,72.67
2018-11-10T06:55:33.178Z,73.04
2018-11-10T06:56:37.266Z,72.97
2018-11-10T06:57:41.366Z,72.47
2018-11-10T06:58:45.490Z,72.54
2018-11-10T06:59:49.696Z,72.94
2018-11-10T07:00:53.844Z,72.66
2018-11-10T07:01:58.088Z,72.76
2018-11-10T07:03:02.224Z,72.45
2018-11-10T07:04:06.439Z,72.56
2018-11-10T07:05:11.350Z,72.71
2018-11-10T07:06:15.610Z,72.96
2018-11-10T07:07:19.742Z,72.33
2018-11-10T07:08:23.905Z,72.68
2018-11-10T07:09:28.046Z,72.84
2018-11-10T07:10:32.019Z,73.10
2018-11-10T07:11:36.334Z,72.58
2018-11-10T07:12:40.536Z,72.76
2018-11-10T07:13:44.633Z,73.00
2018-11-10T07:14:48.788Z,72.68
2018-11-10T07:15:53.004Z,72.91
2018-11-10T07:16:57.047Z,72.83
2018-11-10T07:18:01.516Z,72.47
2018-11-10T07:19:05.693Z,73.25
2018-11-10T07:20:09.781Z,72.98
2018-11-10T07:21:13.913Z,72.81
2018-11-10T07:22:18.023Z,73.03
2018-11-10T07:23:22.328Z,73.16
2018-11-10T07:24:26.462Z,73.48
2018-11-10T07:25:30.578Z,72.95
2018-11-10T07:26:34.759Z,73.26
2018-11-10T07:27:38.897Z,73.13
2018-11-10T07:28:43.068Z,73.32
2018-11-10T07:29:47.253Z,73.32
2018-11-10T07:30:51.459Z,73.45
2018-11-10T07:31:55.608Z,73.26
2018-11-10T07:32:59.819Z,73.31
2018-11-10T07:34:03.873Z,73.30
2018-11-10T07:35:08.660Z,72.93
2018-11-10T07:36:12.828Z,73.30
2018-11-10T07:37:17.033Z,73.40
2018-11-10T07:38:21.064Z,72.88
2018-11-10T07:39:25.172Z,73.43
2018-11-10T07:40:29.219Z,72.97
2018-11-10T07:41:33.342Z,73.05
2018-11-10T07:42:37.380Z,73.21
2018-11-10T07:43:41.485Z,73.00
2018-11-10T07:44:45.632Z,72.90
2018-11-10T07:45:49.839Z,73.09
2018-11-10T07:46:53.924Z,73.07
2018-11-10T07:47:58.090Z,73.15
2018-11-10T07:49:02.280Z,73.16
2018-11-10T07:50:07.505Z,73.52
2018-11-10T07:51:11.832Z,73.12
2018-11-10T07:52:15.801Z,72.71
2018-11-10T07:53:20.191Z,73.48
2018-11-10T07:54:24.317Z,73.33
2018-11-10T07:55:28.380Z,73.10
2018-11-10T07:56:32.440Z,72.82
2018-11-10T07:57:36.668Z,72.83
2018-11-10T07:58:40.861Z,73.36
2018-11-10T07:59:45.082Z,73.12
2018-11-10T08:00:49.107Z,73.37
2018-11-10T08:01:53.180Z,73.49
2018-11-10T08:02:57.320Z,72.97
2018-11-10T08:04:01.471Z,72.80
2018-11-10T08:05:05.914Z,73.21
2018-11-10T08:06:10.160Z,72.93
2018-11-10T08:07:14.212Z,73.14
2018-11-10T08:08:18.338Z,73.03
2018-11-10T08:09:22.470Z,73.41
2018-11-10T08:10:26.604Z,72.91
2018-11-10T08:11:30.897Z,73.03
2018-11-10T08:12:35.197Z,73.07
2018-11-10T08:13:39.296Z,73.25
2018-11-10T08:14:43.377Z,73.08
2018-11-10T08:15:47.544Z,72.94
2018-11-10T08:16:51.690Z,72.43
2018-11-10T08:17:55.736Z,72.65
2018-11-10T08:19:00.024Z,72.90
2018-11-10T08:20:04.284Z,72.42
2018-11-10T08:21:08.724Z,72.39
2018-11-10T08:22:12.772Z,72.92
2018-11-10T08:23:17.147Z,72.90
2018-11-10T08:24:21.396Z,72.28
2018-11-10T08:25:25.527Z,72.84
2018-11-10T08:26:29.742Z,72.66
2018-11-10T08:27:33.832Z,72.97
2018-11-10T08:28:38.212Z,72.81
2018-11-10T08:29:42.375Z,72.85
2018-11-10T08:30:46.399Z,73.10
2018-11-10T08:31:50.433Z,72.75
2018-11-10T08:32:54.570Z,72.82
2018-11-10T08:33:58.684Z,72.44
2018-11-10T08:35:03.595Z,72.71
2018-11-10T08:36:07.700Z,72.82
2018-11-10T08:37:11.920Z,73.09
2018-11-10T08:38:16.029Z,72.36
2018-11-10T08:39:20.233Z,72.42
2018-11-10T08:40:24.454Z,72.98
2018-11-10T08:41:28.607Z,72.98
2018-11-10T08:42:32.683Z,72.32
2018-11-10T08:43:36.773Z,72.99
2018-11-10T08:44:40.973Z,72.54
2018-11-10T08:45:45.228Z,73.08
2018-11-10T08:46:49.323Z,72.75
2018-11-10T08:47:53.423Z,72.42
2018-11-10T08:48:57.522Z,72.27
2018-11-10T08:50:01.617Z,73.07
2018-11-10T08:51:06.057Z,72.99
2018-11-10T08:52:10.177Z,72.21
2018-11-10T08:53:14.282Z,72.79
2018-11-10T08:54:18.378Z,72.35
2018-11-10T08:55:22.546Z,72.17
2018-11-10T08:56:26.624Z,72.96
2018-11-10T08:57:30.896Z,72.59
2018-11-10T08:58:35.204Z,72.35
2018-11-10T08:59:39.233Z,72.92
2018-11-10T09:00:43.438Z,72.87
2018-11-10T09:01:47.678Z,72.68
2018-11-10T09:02:52.077Z,72.97
2018-11-10T09:03:56.132Z,72.38
2018-11-10T09:05:00.354Z,72.18
2018-11-10T09:06:04.445Z,72.32
2018-11-10T09:07:08.573Z,72.36
2018-11-10T09:08:12.686Z,72.58
2018-11-10T09:09:16.764Z,72.33
2018-11-10T09:10:20.842Z,72.21
2018-11-10T09:11:25.019Z,72.70
2018-11-10T09:12:29.056Z,72.53
2018-11-10T09:13:33.158Z,72.12
2018-11-10T09:14:37.374Z,72.71
2018-11-10T09:15:41.410Z,72.56
2018-11-10T09:16:45.546Z,72.34
2018-11-10T09:17:49.896Z,72.65
2018-11-10T09:18:54.015Z,72.42
2018-11-10T09:19:58.517Z,72.77
2018-11-10T09:21:02.640Z,72.37
2018-11-10T09:22:07.663Z,72.42
2018-11-10T09:23:11.768Z,72.91
2018-11-10T09:24:15.874Z,72.69
2018-11-10T09:25:20.071Z,72.39
2018-11-10T09:26:24.706Z,72.64
2018-11-10T09:27:28.827Z,73.03
2018-11-10T09:28:33.025Z,72.90
2018-11-10T09:29:37.161Z,73.01
2018-11-10T09:30:41.333Z,72.29
2018-11-10T09:31:45.336Z,73.00
2018-11-10T09:32:49.537Z,72.38
2018-11-10T09:33:53.628Z,72.93
2018-11-10T09:34:57.881Z,72.39
2018-11-10T09:36:02.310Z,72.98
2018-11-10T09:37:06.624Z,72.44
2018-11-10T09:38:10.806Z,72.40
2018-11-10T09:39:14.992Z,72.46
2018-11-10T09:40:19.158Z,72.63
2018-11-10T09:41:23.360Z,72.38
2018-11-10T09:42:27.469Z,72.72
2018-11-10T09:43:31.515Z,72.33
2018-11-10T09:44:35.704Z,72.29
2018-11-10T09:45:39.885Z,72.89
2018-11-10T09:46:44.029Z,72.37
2018-11-10T09:47:48.367Z,72.22
2018-11-10T09:48:52.443Z,72.59
2018-11-10T09:49:56.621Z,72.51
2018-11-10T09:51:00.764Z,72.21
2018-11-10T09:52:04.849Z,72.82
2018-11-10T09:53:09.135Z,72.81
2018-11-10T09:54:13.622Z,72.82
2018-11-10T09:55:18.293Z,72.85
2018-11-10T09:56:22.453Z,72.33
2018-11-10T09:57:26.491Z,72.79
2018-11-10T09:58:30.892Z,72.21
2018-11-10T09:59:35.088Z,72.66
2018-11-10T10:00:39.246Z,72.43
2018-11-10T10:01:43.472Z,72.13
2018-11-10T10:02:47.925Z,72.61
2018-11-10T10:03:51.724Z,72.05
2018-11-10T10:04:55.859Z,72.86
2018-11-10T10:06:00.022Z,72.52
2018-11-10T10:07:05.015Z,72.14
2018-11-10T10:08:09.224Z,72.60
2018-11-10T10:09:13.273Z,72.19
2018-11-10T10:10:18.138Z,72.30
2018-11-10T10:11:22.226Z,72.09
2018-11-10T10:12:26.708Z,72.21
2018-11-10T10:13:30.836Z,72.59
2018-11-10T10:14:35.003Z,72.07
2018-11-10T10:15:39.198Z,72.28
2018-11-10T10:16:43.382Z,72.25
2018-11-10T10:17:47.689Z,72.57
2018-11-10T10:18:51.936Z,72.29
2018-11-10T10:19:56.070Z,71.99
2018-11-10T10:21:00.245Z,72.26
2018-11-10T10:22:04.632Z,72.60
2018-11-10T10:23:08.821Z,71.89
2018-11-10T10:24:13.468Z,71.87
2018-11-10T10:25:18.179Z,72.71
2018-11-10T10:26:22.297Z,72.14
2018-11-10T10:27:26.443Z,72.10
2018-11-10T10:28:30.581Z,71.95
2018-11-10T10:29:34.687Z,72.17
2018-11-10T10:30:38.968Z,72.83
2018-11-10T10:31:43.200Z,72.13
2018-11-10T10:32:48.230Z,72.17
2018-11-10T10:33:52.609Z,72.70
2018-11-10T10:34:56.980Z,72.83
2018-11-10T10:36:01.002Z,72.62
2018-11-10T10:37:05.823Z,72.62
2018-11-10T10:38:11.242Z,72.13
2018-11-10T10:39:15.548Z,72.70
2018-11-10T10:40:19.914Z,72.75
2018-11-10T10:41:23.988Z,72.15
2018-11-10T10:42:28.075Z,72.35
2018-11-10T10:43:32.288Z,72.54
2018-11-10T10:44:36.560Z,72.21
2018-11-10T10:45:41.253Z,72.89
2018-11-10T10:46:45.346Z,72.27
2018-11-10T10:47:49.399Z,72.41
2018-11-10T10:48:53.611Z,72.56
2018-11-10T10:49:57.586Z,73.04
2018-11-10T10:51:02.492Z,73.14
2018-11-10T10:52:06.642Z,72.58
2018-11-10T10:53:10.779Z,72.94
2018-11-10T10:54:15.250Z,73.42
2018-11-10T10:55:26.031Z,72.77
2018-11-10T10:56:30.280Z,73.35
2018-11-10T10:57:35.872Z,73.40
2018-11-10T10:58:40.041Z,73.47
2018-11-10T10:59:44.127Z,73.18
2018-11-10T11:00:53.660Z,73.12
2018-11-10T11:02:03.111Z,73.97
2018-11-10T11:03:15.104Z,73.46
2018-11-10T11:04:24.375Z,73.85
2018-11-10T11:05:33.905Z,73.69
2018-11-10T11:06:38.003Z,73.42
2018-11-10T11:07:42.274Z,73.70
2018-11-10T11:08:46.487Z,73.58
2018-11-10T11:09:50.547Z,74.18
2018-11-10T11:10:54.720Z,74.22
2018-11-10T11:11:58.803Z,74.38
2018-11-10T11:13:02.948Z,74.53
2018-11-10T11:14:07.392Z,74.16
2018-11-10T11:15:11.640Z,74.05
2018-11-10T11:16:16.039Z,74.27
2018-11-10T11:17:20.350Z,74.40
2018-11-10T11:18:24.547Z,74.67
2018-11-10T11:19:28.642Z,75.02
2018-11-10T11:20:32.827Z,74.37
2018-11-10T11:21:37.488Z,74.53
2018-11-10T11:22:41.872Z,75.27
2018-11-10T11:23:46.063Z,75.34
2018-11-10T11:24:50.174Z,75.26
2018-11-10T11:25:54.337Z,75.37
2018-11-10T11:26:58.595Z,75.66
2018-11-10T11:28:02.792Z,75.91
2018-11-10T11:29:06.916Z,75.16
2018-11-10T11:30:10.957Z,75.79
2018-11-10T11:31:15.108Z,75.55
2018-11-10T11:32:19.157Z,75.86
2018-11-10T11:33:23.217Z,76.11
2018-11-10T11:34:27.399Z,75.76
2018-11-10T11:35:32.139Z,75.81
2018-11-10T11:36:36.285Z,75.87
2018-11-10T11:37:41.173Z,76.43
2018-11-10T11:38:45.440Z,76.41
2018-11-10T11:39:49.572Z,76.46
2018-11-10T11:40:53.852Z,76.30
2018-11-10T11:41:58.037Z,76.33
2018-11-10T11:43:02.076Z,76.58
2018-11-10T11:44:06.718Z,76.70
2018-11-10T11:45:11.822Z,76.70
2018-11-10T11:46:16.430Z,76.82
2018-11-10T11:47:20.702Z,77.30
2018-11-10T11:48:24.757Z,77.36
2018-11-10T11:49:28.876Z,77.41
2018-11-10T11:50:33.329Z,77.27
2018-11-10T11:51:37.355Z,77.68
2018-11-10T11:52:42.022Z,77.34
2018-11-10T11:53:46.145Z,77.78
2018-11-10T11:54:50.357Z,77.97
2018-11-10T11:55:54.442Z,78.04
2018-11-10T11:56:58.564Z,78.27
2018-11-10T11:58:02.837Z,77.52
2018-11-10T11:59:06.836Z,77.52
2018-11-10T12:00:13.808Z,78.40
2018-11-10T12:01:17.913Z,78.05
2018-11-10T12:02:22.230Z,77.97
2018-11-10T12:03:26.186Z,78.33
2018-11-10T12:04:30.659Z,77.89
2018-11-10T12:05:34.657Z,77.96
2018-11-10T12:06:38.741Z,78.21
2018-11-10T12:07:43.030Z,78.46
2018-11-10T12:08:47.178Z,78.78
2018-11-10T12:09:51.353Z,78.47
2018-11-10T12:10:55.459Z,78.47
2018-11-10T12:11:59.618Z,78.64
2018-11-10T12:13:03.788Z,78.44
2018-11-10T12:14:07.904Z,79.09
2018-11-10T12:15:13.408Z,78.51
2018-11-10T12:16:27.197Z,78.75
2018-11-10T12:17:21.590Z,79.14
2018-11-10T12:18:25.681Z,78.41
2018-11-10T12:19:29.801Z,78.54
2018-11-10T12:20:33.913Z,78.55
2018-11-10T12:21:39.240Z,79.15
2018-11-10T12:22:43.508Z,79.33
2018-11-10T12:23:47.645Z,79.30
2018-11-10T12:24:51.703Z,79.32
2018-11-10T12:25:56.098Z,78.79
2018-11-10T12:27:00.196Z,79.43
2018-11-10T12:28:04.556Z,79.36
2018-11-10T12:29:08.643Z,79.62
2018-11-10T12:30:12.986Z,79.68
2018-11-10T12:31:17.083Z,78.96
2018-11-10T12:32:21.202Z,79.65
2018-11-10T12:33:25.541Z,79.63
2018-11-10T12:34:29.799Z,79.25
2018-11-10T12:35:33.924Z,79.68
2018-11-10T12:36:38.099Z,79.70
2018-11-10T12:37:42.642Z,79.05
2018-11-10T12:38:46.950Z,79.28
2018-11-10T12:39:51.254Z,79.81
2018-11-10T12:40:55.424Z,79.61
2018-11-10T12:41:59.680Z,79.45
2018-11-10T12:43:03.755Z,79.58
2018-11-10T12:44:08.467Z,79.74
2018-11-10T12:45:13.523Z,80.06
2018-11-10T12:46:17.655Z,79.54
2018-11-10T12:47:21.828Z,79.59
2018-11-10T12:48:25.886Z,79.35
2018-11-10T12:49:30.149Z,79.91
2018-11-10T12:50:34.357Z,79.28
2018-11-10T12:51:38.414Z,79.91
2018-11-10T12:52:43.467Z,79.52
2018-11-10T12:53:47.622Z,79.88
2018-11-10T12:54:51.789Z,79.32
2018-11-10T12:55:55.864Z,79.33
2018-11-10T12:57:00.084Z,79.85
2018-11-10T12:58:04.190Z,79.64
2018-11-10T12:59:08.533Z,79.31
2018-11-10T13:00:13.946Z,79.86
2018-11-10T13:01:18.040Z,79.59
2018-11-10T13:02:22.256Z,79.35
2018-11-10T13:03:26.347Z,79.81
2018-11-10T13:04:30.538Z,79.65
2018-11-10T13:05:34.883Z,79.14
2018-11-10T13:06:39.012Z,79.37
2018-11-10T13:07:45.351Z,79.20
2018-11-10T13:08:49.492Z,79.41
2018-11-10T13:09:53.528Z,79.17
2018-11-10T13:10:57.719Z,79.73
2018-11-10T13:12:02.117Z,79.35
2018-11-10T13:13:06.166Z,79.40
2018-11-10T13:14:11.025Z,79.67
2018-11-10T13:15:15.747Z,79.75
2018-11-10T13:16:19.807Z,78.98
2018-11-10T13:17:23.926Z,78.99
2018-11-10T13:18:28.244Z,79.01
2018-11-10T13:19:32.353Z,79.13
2018-11-10T13:20:36.476Z,79.57
2018-11-10T13:21:40.981Z,79.53
2018-11-10T13:22:45.057Z,79.18
2018-11-10T13:23:49.204Z,79.36
2018-11-10T13:24:53.604Z,78.86
2018-11-10T13:25:57.707Z,79.08
2018-11-10T13:27:01.771Z,78.78
2018-11-10T13:28:05.851Z,78.85
2018-11-10T13:29:10.468Z,79.42
2018-11-10T13:30:15.513Z,78.67
2018-11-10T13:31:19.684Z,79.37
2018-11-10T13:32:23.728Z,79.20
2018-11-10T13:33:28.025Z,78.93
2018-11-10T13:34:32.271Z,79.24
2018-11-10T13:35:36.279Z,78.78
2018-11-10T13:36:40.493Z,79.46
2018-11-10T13:37:44.559Z,78.90
2018-11-10T13:38:48.831Z,78.86
2018-11-10T13:39:52.987Z,78.98
2018-11-10T13:40:57.065Z,79.56
2018-11-10T13:42:01.840Z,78.94
2018-11-10T13:43:06.592Z,79.33
2018-11-10T13:44:10.711Z,79.45
2018-11-10T13:45:15.540Z,79.61
2018-11-10T13:46:19.589Z,79.71
2018-11-10T13:47:23.735Z,79.61
2018-11-10T13:48:27.926Z,79.07